createdAt,value
2023-05-23T00:01:40.493Z,7.70
2023-05-23T00:05:28.212Z,6.90
2023-05-23T00:09:05.227Z,7.30
2023-05-23T00:12:52.483Z,8.10
2023-05-23T00:16:40.082Z,8.20
2023-05-23T00:20:30.465Z,8.30
2023-05-23T00:24:19.180Z,7.50
2023-05-23T00:28:06.812Z,7.90
2023-05-23T00:31:53.606Z,8.20
2023-05-23T00:35:41.745Z,8.50
2023-05-23T00:39:29.454Z,8.60
2023-05-23T00:43:17.372Z,7.90
2023-05-23T00:47:06.018Z,8.70
2023-05-23T00:50:53.335Z,8.50
2023-05-23T00:55:00.863Z,8.80
2023-05-23T00:58:03.855Z,8.60
2023-05-23T01:01:50.540Z,8.80
2023-05-23T01:05:23.326Z,9.30
2023-05-23T01:09:11.693Z,9.30
2023-05-23T01:13:09.523Z,9.40
2023-05-23T01:16:57.994Z,8.90
2023-05-23T01:20:59.778Z,9.00
2023-05-23T01:25:05.951Z,9.10
2023-05-23T01:28:53.749Z,9.00
2023-05-23T01:32:29.979Z,8.60
2023-05-23T01:36:17.275Z,8.90
2023-05-23T01:40:06.453Z,9.10
2023-05-23T01:44:14.143Z,9.40
2023-05-23T01:47:42.444Z,9.20
2023-05-23T01:51:13.414Z,9.50
2023-05-23T01:55:01.239Z,9.10
2023-05-23T01:58:37.428Z,9.70
2023-05-23T02:02:25.706Z,10.20
2023-05-23T02:06:04.587Z,10.30
2023-05-23T02:09:52.151Z,9.90
2023-05-23T02:13:39.112Z,10.80
2023-05-23T02:17:35.175Z,11.00
2023-05-23T02:21:05.354Z,9.80
2023-05-23T02:24:37.677Z,9.40
2023-05-23T02:28:26.365Z,10.20
2023-05-23T02:32:14.131Z,10.90
2023-05-23T02:36:02.276Z,10.60
2023-05-23T02:39:49.885Z,10.10
2023-05-23T02:43:20.673Z,10.60
2023-05-23T02:47:00.607Z,10.40
2023-05-23T02:50:48.175Z,11.20
2023-05-23T02:54:10.711Z,11.10
2023-05-23T02:57:58.394Z,10.50
2023-05-23T03:01:43.899Z,11.00
2023-05-23T03:05:20.819Z,11.50
2023-05-23T03:09:08.854Z,11.40
2023-05-23T03:12:44.457Z,11.10
2023-05-23T03:16:31.452Z,11.60
2023-05-23T03:20:19.595Z,11.90
2023-05-23T03:24:07.492Z,11.30
2023-05-23T03:27:54.649Z,11.50
2023-05-23T03:31:26.860Z,11.60
2023-05-23T03:35:14.783Z,12.40
2023-05-23T03:39:02.346Z,11.40
2023-05-23T03:42:50.418Z,11.50
2023-05-23T03:46:21.160Z,12.40
2023-05-23T03:49:53.414Z,12.80
2023-05-23T03:53:24.764Z,12.40
2023-05-23T03:57:11.582Z,13.10
2023-05-23T04:00:55.250Z,12.50
2023-05-23T04:04:42.312Z,12.50
2023-05-23T04:08:19.508Z,12.80
2023-05-23T04:12:06.921Z,13.10
2023-05-23T04:15:36.708Z,12.70
2023-05-23T04:18:55.842Z,12.70
2023-05-23T04:22:43.632Z,13.20
2023-05-23T04:26:31.398Z,12.70
2023-05-23T04:30:02.274Z,12.80
2023-05-23T04:33:13.417Z,12.80
2023-05-23T04:37:02.980Z,13.10
2023-05-23T04:40:48.172Z,12.10
2023-05-23T04:44:35.533Z,12.60
2023-05-23T04:48:23.078Z,12.00
2023-05-23T04:51:52.682Z,12.70
2023-05-23T04:55:36.311Z,12.60
2023-05-23T04:59:24.102Z,12.20
2023-05-23T05:03:12.484Z,12.70
2023-05-23T05:06:37.701Z,12.00
2023-05-23T05:10:25.193Z,13.00
2023-05-23T05:13:56.194Z,11.90
2023-05-23T05:17:45.116Z,11.90
2023-05-23T05:21:33.518Z,13.40
2023-05-23T05:25:21.321Z,15.40
2023-05-23T05:29:09.060Z,13.50
2023-05-23T05:32:56.664Z,12.20
2023-05-23T05:36:44.150Z,12.60
2023-05-23T05:40:32.440Z,12.90
2023-05-23T05:44:21.817Z,13.30
2023-05-23T05:48:05.000Z,13.00
2023-05-23T05:51:36.336Z,12.10
2023-05-23T05:55:24.192Z,12.10
2023-05-23T05:58:59.327Z,12.50
2023-05-23T06:02:49.094Z,12.30
2023-05-23T06:06:30.813Z,12.30
2023-05-23T06:10:18.752Z,11.40
2023-05-23T06:14:07.252Z,12.10
2023-05-23T06:17:55.474Z,13.80
2023-05-23T06:21:43.979Z,11.70
2023-05-23T06:25:31.866Z,10.90
2023-05-23T06:29:19.991Z,10.40
2023-05-23T06:33:07.476Z,16.30
2023-05-23T06:36:55.317Z,9.50
2023-05-23T06:40:43.241Z,9.70
2023-05-23T06:44:02.254Z,9.60
2023-05-23T06:47:51.142Z,9.40
2023-05-23T06:51:40.360Z,9.50
2023-05-23T06:55:22.046Z,9.90
2023-05-23T06:59:10.449Z,9.20
2023-05-23T07:02:58.099Z,8.60
2023-05-23T07:06:47.837Z,9.20
2023-05-23T07:10:36.527Z,8.50
2023-05-23T07:14:25.216Z,8.50
2023-05-23T07:18:14.940Z,8.60
2023-05-23T07:22:02.205Z,9.30
2023-05-23T07:29:50.848Z,8.50
2023-05-23T07:33:38.058Z,9.30
2023-05-23T07:37:41.845Z,7.80
2023-05-23T07:41:49.256Z,7.60
2023-05-23T07:45:38.966Z,7.30
2023-05-23T07:49:31.571Z,7.40
2023-05-23T07:53:19.948Z,7.20
2023-05-23T07:57:07.704Z,26.40
2023-05-23T08:01:15.369Z,6.80
2023-05-23T08:05:03.273Z,6.70
2023-05-23T08:08:51.710Z,6.30
2023-05-23T08:12:29.606Z,6.00
2023-05-23T08:16:22.290Z,6.30
2023-05-23T08:20:09.092Z,5.90
2023-05-23T08:23:57.518Z,5.70
2023-05-23T08:27:37.315Z,6.20
2023-05-23T08:31:18.620Z,5.70
2023-05-23T08:35:06.170Z,5.90
2023-05-23T08:38:46.572Z,6.80
2023-05-23T08:42:27.222Z,5.70
2023-05-23T08:46:15.081Z,5.40
2023-05-23T08:50:03.273Z,5.50
2023-05-23T08:53:53.091Z,5.50
2023-05-23T08:57:40.965Z,5.20
2023-05-23T09:01:29.019Z,5.40
2023-05-23T09:05:16.628Z,6.80
2023-05-23T09:09:04.554Z,5.70
2023-05-23T09:12:52.987Z,5.30
2023-05-23T09:16:46.496Z,5.30
2023-05-23T09:20:34.400Z,5.00
2023-05-23T09:24:22.058Z,5.20
2023-05-23T09:28:09.988Z,5.10
2023-05-23T09:31:57.891Z,5.00
2023-05-23T09:35:49.073Z,4.70
2023-05-23T09:39:33.010Z,4.60
2023-05-23T09:43:23.574Z,5.00
2023-05-23T09:46:57.403Z,5.00
2023-05-23T09:50:45.772Z,4.60
2023-05-23T09:54:34.354Z,5.20
2023-05-23T09:58:24.941Z,5.00
2023-05-23T10:02:12.687Z,5.30
2023-05-23T10:06:03.212Z,5.20
2023-05-23T10:09:50.016Z,5.50
2023-05-23T10:13:52.683Z,5.10
2023-05-23T10:17:38.566Z,5.00
2023-05-23T10:21:25.243Z,5.50
2023-05-23T10:25:12.281Z,5.50
2023-05-23T10:29:00.179Z,5.40
2023-05-23T10:32:37.121Z,5.20
2023-05-23T10:36:31.020Z,5.30
2023-05-23T10:40:16.109Z,5.40
2023-05-23T10:44:16.651Z,5.70
2023-05-23T10:48:07.388Z,5.90
2023-05-23T10:52:08.779Z,6.90
2023-05-23T10:55:56.965Z,6.10
2023-05-23T10:59:42.555Z,6.10
2023-05-23T11:03:29.716Z,6.40
2023-05-23T11:07:02.537Z,7.50
2023-05-23T11:11:03.372Z,8.40
2023-05-23T11:14:55.121Z,7.70
2023-05-23T11:19:01.401Z,9.00
2023-05-23T11:22:21.053Z,7.60
2023-05-23T11:25:35.094Z,8.80
2023-05-23T11:29:18.159Z,8.30
2023-05-23T11:32:38.360Z,8.10
2023-05-23T11:36:07.608Z,8.80
2023-05-23T11:39:43.409Z,9.80
2023-05-23T11:43:15.214Z,9.10
2023-05-23T11:46:27.159Z,9.80
2023-05-23T11:49:45.886Z,9.20
2023-05-23T11:53:33.330Z,10.70
2023-05-23T11:56:58.931Z,13.10
2023-05-23T12:00:12.079Z,12.00
2023-05-23T12:03:43.922Z,9.60
2023-05-23T12:07:24.677Z,10.00
2023-05-23T12:10:57.583Z,10.20
2023-05-23T12:14:46.210Z,10.20
2023-05-23T12:18:16.710Z,11.60
2023-05-23T12:21:36.776Z,11.20
2023-05-23T12:25:18.007Z,9.90
2023-05-23T12:28:38.679Z,10.20
2023-05-23T12:32:21.275Z,10.80
2023-05-23T12:35:26.930Z,11.50
2023-05-23T12:38:53.607Z,9.50
2023-05-23T12:42:01.703Z,10.30
2023-05-23T12:45:32.462Z,10.00
2023-05-23T12:49:20.200Z,9.50
2023-05-23T12:52:37.945Z,10.80
2023-05-23T12:55:47.468Z,11.30
2023-05-23T12:59:17.627Z,10.40
2023-05-23T13:02:54.356Z,11.40
2023-05-23T13:05:44.625Z,12.00
2023-05-23T13:09:19.409Z,11.10
2023-05-23T13:12:24.255Z,11.50
2023-05-23T13:16:02.759Z,11.30
2023-05-23T13:19:14.392Z,10.60
2023-05-23T13:22:42.076Z,11.40
2023-05-23T13:26:17.380Z,12.20
2023-05-23T13:29:56.917Z,10.30
2023-05-23T13:33:18.171Z,10.50
2023-05-23T13:36:28.820Z,10.40
2023-05-23T13:40:08.039Z,10.50
2023-05-23T13:43:40.435Z,10.30
2023-05-23T13:47:12.688Z,10.60
2023-05-23T13:50:33.709Z,12.10
2023-05-23T13:54:03.258Z,12.80
2023-05-23T13:57:24.513Z,13.20
2023-05-23T14:01:13.054Z,14.30
2023-05-23T14:04:34.416Z,14.20
2023-05-23T14:08:08.974Z,14.00
2023-05-23T14:11:56.574Z,15.50
2023-05-23T14:15:35.982Z,15.60
2023-05-23T14:19:08.234Z,15.30
2023-05-23T14:22:49.255Z,14.60
2023-05-23T14:26:36.743Z,15.00
2023-05-23T14:29:53.171Z,14.40
2023-05-23T14:33:02.329Z,14.10
2023-05-23T14:36:21.418Z,14.70
2023-05-23T14:39:41.776Z,14.00
2023-05-23T14:43:01.797Z,13.50
2023-05-23T14:46:18.532Z,12.50
2023-05-23T14:49:36.424Z,14.10
2023-05-23T14:53:24.413Z,13.30
2023-05-23T14:56:42.382Z,14.00
2023-05-23T15:00:10.128Z,15.50
2023-05-23T15:03:42.757Z,13.90
2023-05-23T15:07:24.329Z,14.60
2023-05-23T15:11:01.688Z,16.40
2023-05-23T15:14:36.696Z,15.80
2023-05-23T15:18:07.251Z,15.40
2023-05-23T15:21:30.824Z,15.00
2023-05-23T15:24:43.841Z,15.60
2023-05-23T15:27:46.155Z,15.20
2023-05-23T15:31:07.760Z,16.10
2023-05-23T15:34:41.684Z,17.10
2023-05-23T15:37:54.911Z,16.20
2023-05-23T15:41:32.497Z,17.00
2023-05-23T15:45:14.018Z,17.30
2023-05-23T15:48:06.145Z,17.00
2023-05-23T15:51:53.823Z,14.20
2023-05-23T15:55:42.617Z,14.50
2023-05-23T15:58:36.450Z,13.00
2023-05-23T16:02:01.202Z,11.90
2023-05-23T16:05:43.268Z,12.30
2023-05-23T16:09:12.053Z,11.70
2023-05-23T16:12:42.282Z,12.50
2023-05-23T16:16:30.298Z,11.90
2023-05-23T16:19:55.562Z,11.60
2023-05-23T16:23:24.658Z,11.80
2023-05-23T16:26:44.976Z,12.00
2023-05-23T16:30:15.083Z,10.70
2023-05-23T16:34:03.208Z,9.90
2023-05-23T16:37:44.967Z,11.60
2023-05-23T16:40:56.551Z,10.90
2023-05-23T16:44:34.728Z,11.20
2023-05-23T16:48:22.589Z,11.50
2023-05-23T16:51:48.495Z,11.20
2023-05-23T16:54:44.744Z,11.50
2023-05-23T16:58:31.894Z,12.10
2023-05-23T17:01:51.815Z,12.10
2023-05-23T17:16:09.931Z,12.70
2023-05-23T17:20:38.144Z,14.30
2023-05-23T17:25:09.099Z,15.50
2023-05-23T17:29:37.772Z,15.20
2023-05-23T17:34:06.993Z,14.60
2023-05-23T17:38:35.872Z,17.20
2023-05-23T17:43:07.018Z,18.30
2023-05-23T17:47:35.822Z,21.30
2023-05-23T17:52:04.872Z,18.90
2023-05-23T17:56:33.216Z,24.90
2023-05-23T18:01:02.098Z,25.60
2023-05-23T18:05:31.445Z,24.80
2023-05-23T18:10:00.441Z,24.10
2023-05-23T18:14:28.120Z,23.40
2023-05-23T18:18:56.492Z,17.20
2023-05-23T18:23:24.998Z,17.30
2023-05-23T18:27:54.683Z,19.70
2023-05-23T18:32:24.161Z,18.00
2023-05-23T18:36:53.529Z,19.40
2023-05-23T18:41:21.564Z,18.80
2023-05-23T18:45:54.895Z,17.70
2023-05-23T18:50:24.290Z,16.50
2023-05-23T18:54:52.849Z,17.70
2023-05-23T18:59:20.874Z,16.60
2023-05-23T19:03:49.439Z,17.70
2023-05-23T19:08:18.078Z,17.60
2023-05-23T19:12:48.176Z,17.20
2023-05-23T19:17:17.703Z,17.80
2023-05-23T19:21:45.370Z,17.20
2023-05-23T19:26:13.103Z,16.10
2023-05-23T19:30:41.089Z,17.40
2023-05-23T19:35:09.041Z,17.30
2023-05-23T19:39:37.393Z,16.80
2023-05-23T19:44:05.997Z,17.20
2023-05-23T19:48:34.674Z,16.90
2023-05-23T19:53:07.330Z,17.90
2023-05-23T19:57:36.462Z,18.50
2023-05-23T20:02:04.734Z,16.60
2023-05-23T20:06:32.966Z,17.60
2023-05-23T20:11:01.420Z,19.60
2023-05-23T20:15:39.399Z,19.90
2023-05-23T20:19:59.701Z,17.90
2023-05-23T20:24:27.540Z,19.20
2023-05-23T20:28:55.906Z,18.40
2023-05-23T20:33:23.746Z,19.60
2023-05-23T20:37:51.756Z,21.40
2023-05-23T20:42:19.885Z,20.80
2023-05-23T20:46:47.840Z,19.00
2023-05-23T20:51:15.114Z,19.80
2023-05-23T20:55:43.869Z,18.60
2023-05-23T21:00:11.695Z,22.00
2023-05-23T21:04:40.822Z,23.50
2023-05-23T21:09:08.312Z,22.40
2023-05-23T21:13:39.006Z,22.20
2023-05-23T21:18:06.506Z,22.30
2023-05-23T21:22:34.672Z,23.70
2023-05-23T21:27:02.337Z,22.40
2023-05-23T21:31:41.106Z,23.30
2023-05-23T21:36:00.952Z,21.80
2023-05-23T21:40:28.346Z,19.90
2023-05-23T21:44:55.860Z,22.20
2023-05-23T21:49:23.678Z,21.90
2023-05-23T21:53:51.463Z,20.10
2023-05-23T21:58:19.022Z,21.60
2023-05-23T22:02:46.733Z,22.80
2023-05-23T22:07:14.376Z,21.40
2023-05-23T22:11:41.811Z,23.60
2023-05-23T22:16:09.260Z,21.50
2023-05-23T22:20:36.634Z,22.70
2023-05-23T22:25:04.339Z,22.50
2023-05-23T22:29:31.889Z,20.90
2023-05-23T22:33:59.661Z,23.50
2023-05-23T22:38:27.630Z,21.00
2023-05-23T22:42:55.435Z,20.20
2023-05-23T22:47:29.031Z,22.00
2023-05-23T22:51:56.654Z,23.10
2023-05-23T22:56:24.394Z,21.60
2023-05-23T23:00:52.465Z,22.80
2023-05-23T23:05:20.175Z,21.20
2023-05-23T23:09:48.097Z,21.00
2023-05-23T23:14:16.050Z,22.60
2023-05-23T23:18:43.938Z,22.50
2023-05-23T23:23:11.847Z,21.30
2023-05-23T23:27:39.055Z,22.50
2023-05-23T23:32:06.729Z,21.50
2023-05-23T23:36:34.357Z,20.00
2023-05-23T23:41:01.964Z,21.40
2023-05-23T23:45:29.963Z,20.40
2023-05-23T23:49:58.990Z,21.50
2023-05-23T23:54:26.734Z,21.00
2023-05-23T23:58:54.242Z,19.50
